Portada
METAR-TAF:

METAR-TAF

Aeroports :

Quito, Equador

latitud: 0-06-48S, longitud: 78-21-31W, altitud: 2400 m

METAR: manca

Hora: 08:26 (13:26 UTC)

Pronòstic

L'informe es va fer fa 20 hores i 46 minuts, a les 16:40 UTC
Pronòstic vàlid del 18 a les 18 UTC al 19 a les 18 UTC
Vent 6 kt del Sud/Sud-Oest
Visibilitat 10 km o més
Cel ennuvolat a una alçada de 3300 ft
Cel ennuvolat a una alçada de 10000 ft
Evolucionant progressivament
l' 18 a les 23 UTC al 18 a les 24 UTC
Vent 3 kt amb direcció variable
Núvols disperses a una alçada de 8000 ft
A partir de les 19 a les 1400 UTC
Vent 3 kt amb direcció variable
Visibilitat 10 km o més
Núvols disperses a una alçada de 3300 ft

TAF: SEQM 181640Z 1818/1918 21006KT 9999 BKN033 BKN100 BECMG 1823/1824 VRB03KT SCT080 FM191400 VRB03KT 9999 SCT033 TX25/1820Z TN11/1911Z

Observacions i pronòstics meteorològics de més de 4000 aeroports (METAR i TAF).

Les estacions disponibles són els punts grocs i vermells al mapa.

Posi el ratolí al punt desitjat per veure el nom de l'estació.

Feu clic per veure les observacions i els pronòstics meteorològics.

Per canviar el mapa: feu clic els botons verds amb una creu de color negre per apropar; al botó verd amb un guió per allunyar la imatge; o en les fletxes verdes per a mapes adjacents.


METAR-TAF: